Grafton, West Virginia
Current Conditions -  °F | °C
As of 5:09 PM on Monday 26 Jan 2015 (Local Time) from KCKB Reporting Station
Moderate Snow Moderate Snow  
Wind Chill: 21°   Ceiling: 500
Heat Index: 28°   Visibility: 0.5mi
Dew Point: 26°   Wind: 7mph
Humidity: 92%   Direction: 290°WNW
Pressure: 29.75"   Gusts: NA
Location:  39.34°N, 80.02°W
Report Text: KCKB 262209Z 29006KT 1/2SM SN FZFG BKN005 BKN014 OVC022 M02/M03 A2975 RMK AO2 P0001 T10221033 RVRNO
Loading
Personal Weather Stations






























Interactive Weather Map New forecast layout! Learn more

10-Day Weather Forecast

Advertisements
Track Severe Weather on mobile